createdAt,value
2022-10-06T00:00:50.254Z,3.73
2022-10-06T00:03:18.538Z,3.80
2022-10-06T00:05:46.549Z,4.03
2022-10-06T00:08:15.940Z,3.73
2022-10-06T00:10:43.924Z,4.30
2022-10-06T00:13:12.013Z,4.70
2022-10-06T00:15:40.457Z,4.70
2022-10-06T00:18:08.346Z,5.40
2022-10-06T00:20:36.259Z,4.50
2022-10-06T00:23:04.424Z,4.83
2022-10-06T00:25:33.636Z,5.00
2022-10-06T00:28:01.593Z,4.00
2022-10-06T00:30:31.264Z,4.60
2022-10-06T00:33:01.032Z,5.20
2022-10-06T00:35:32.112Z,4.83
2022-10-06T00:38:00.151Z,4.60
2022-10-06T00:40:31.811Z,3.30
2022-10-06T00:43:03.140Z,3.80
2022-10-06T00:45:34.680Z,3.43
2022-10-06T00:48:06.354Z,3.60
2022-10-06T00:50:34.955Z,3.30
2022-10-06T00:53:03.845Z,4.20
2022-10-06T00:55:32.046Z,4.07
2022-10-06T00:58:02.327Z,4.17
2022-10-06T01:00:30.211Z,3.90
2022-10-06T01:03:04.275Z,3.90
2022-10-06T01:05:35.894Z,3.57
2022-10-06T01:08:03.781Z,4.10
2022-10-06T01:10:31.646Z,3.70
2022-10-06T01:13:01.088Z,3.90
2022-10-06T01:15:29.669Z,3.20
2022-10-06T01:18:03.247Z,4.40
2022-10-06T01:20:32.115Z,3.37
2022-10-06T01:23:05.221Z,3.30
2022-10-06T01:25:35.518Z,3.33
2022-10-06T01:28:05.430Z,3.63
2022-10-06T01:30:39.941Z,4.17
2022-10-06T01:33:08.150Z,4.03
2022-10-06T01:35:35.991Z,3.73
2022-10-06T01:38:05.452Z,3.90
2022-10-06T01:40:33.312Z,3.80
2022-10-06T01:43:01.139Z,3.60
2022-10-06T01:45:29.008Z,3.90
2022-10-06T01:47:56.951Z,3.80
2022-10-06T01:50:24.822Z,3.70
2022-10-06T01:52:52.831Z,3.67
2022-10-06T01:55:22.052Z,3.50
2022-10-06T01:57:49.935Z,3.80
2022-10-06T02:00:18.128Z,3.50
2022-10-06T02:02:46.164Z,3.80
2022-10-06T02:05:15.718Z,3.00
2022-10-06T02:07:43.595Z,3.10
2022-10-06T02:10:11.498Z,3.30
2022-10-06T02:12:40.799Z,3.80
2022-10-06T02:15:10.615Z,3.33
2022-10-06T02:17:39.255Z,3.10
2022-10-06T02:20:07.958Z,3.50
2022-10-06T02:22:39.222Z,3.40
2022-10-06T02:25:07.591Z,2.90
2022-10-06T02:27:35.695Z,3.30
2022-10-06T02:30:05.733Z,2.90
2022-10-06T02:32:35.389Z,3.03
2022-10-06T02:35:04.750Z,3.10
2022-10-06T02:37:32.616Z,3.60
2022-10-06T02:40:00.516Z,3.40
2022-10-06T02:42:28.695Z,3.50
2022-10-06T02:44:59.053Z,3.40
2022-10-06T02:47:28.413Z,3.10
2022-10-06T02:49:56.233Z,3.10
2022-10-06T02:52:24.120Z,3.17
2022-10-06T02:54:52.424Z,3.00
2022-10-06T02:57:20.265Z,3.03
2022-10-06T02:59:48.127Z,3.37
2022-10-06T03:02:16.087Z,3.10
2022-10-06T03:04:45.371Z,3.10
2022-10-06T03:07:13.204Z,3.10
2022-10-06T03:09:41.077Z,2.70
2022-10-06T03:12:09.081Z,3.00
2022-10-06T03:14:36.928Z,3.00
2022-10-06T03:17:04.785Z,3.10
2022-10-06T03:19:32.788Z,3.13
2022-10-06T03:22:02.043Z,3.17
2022-10-06T03:24:29.867Z,3.40
2022-10-06T03:26:58.112Z,3.37
2022-10-06T03:29:25.984Z,2.97
2022-10-06T03:31:53.861Z,3.37
2022-10-06T03:34:21.742Z,3.50
2022-10-06T03:36:49.598Z,3.23
2022-10-06T03:39:18.849Z,3.50
2022-10-06T03:41:46.698Z,3.43
2022-10-06T03:44:14.571Z,3.70
2022-10-06T03:46:42.609Z,3.67
2022-10-06T03:49:10.527Z,3.63
2022-10-06T03:51:40.063Z,3.33
2022-10-06T03:54:10.786Z,3.30
2022-10-06T03:56:42.068Z,3.70
2022-10-06T03:59:12.098Z,3.50
2022-10-06T04:01:42.653Z,3.67
2022-10-06T04:04:11.571Z,4.07
2022-10-06T04:06:41.541Z,3.80
2022-10-06T04:09:15.284Z,3.77
2022-10-06T04:11:46.246Z,4.10
2022-10-06T04:14:16.004Z,3.50
2022-10-06T04:16:45.364Z,3.90
2022-10-06T04:19:14.686Z,3.67
2022-10-06T04:21:44.627Z,3.90
2022-10-06T04:24:13.144Z,3.73
2022-10-06T04:26:45.133Z,3.50
2022-10-06T04:29:14.907Z,3.67
2022-10-06T04:31:43.599Z,3.53
2022-10-06T04:34:13.399Z,3.30
2022-10-06T04:36:42.860Z,3.20
2022-10-06T04:39:12.517Z,3.43
2022-10-06T04:41:42.274Z,3.83
2022-10-06T04:44:10.698Z,3.50
2022-10-06T04:46:44.389Z,3.30
2022-10-06T04:49:19.052Z,3.80
2022-10-06T04:51:48.086Z,3.83
2022-10-06T04:54:15.948Z,4.03
2022-10-06T04:56:43.806Z,4.03
2022-10-06T04:59:11.670Z,4.23
2022-10-06T05:01:40.948Z,4.07
2022-10-06T05:04:08.885Z,3.83
2022-10-06T05:06:38.286Z,3.80
2022-10-06T05:09:08.731Z,4.03
2022-10-06T05:11:36.639Z,4.13
2022-10-06T05:14:04.700Z,4.10
2022-10-06T05:16:33.114Z,4.10
2022-10-06T05:19:02.364Z,4.53
2022-10-06T05:21:32.300Z,3.63
2022-10-06T05:24:00.704Z,4.30
2022-10-06T05:26:30.965Z,4.47
2022-10-06T05:28:58.978Z,4.20
2022-10-06T05:31:29.189Z,4.20
2022-10-06T05:33:58.175Z,4.70
2022-10-06T05:36:29.872Z,4.90
2022-10-06T05:38:58.435Z,4.97
2022-10-06T05:41:28.813Z,4.90
2022-10-06T05:43:57.054Z,5.60
2022-10-06T05:46:28.295Z,5.63
2022-10-06T05:48:57.821Z,4.97
2022-10-06T05:51:30.892Z,5.23
2022-10-06T05:53:59.961Z,5.27
2022-10-06T05:56:29.311Z,5.40
2022-10-06T05:58:58.640Z,5.70
2022-10-06T06:01:28.275Z,5.07
2022-10-06T06:03:59.582Z,5.20
2022-10-06T06:06:31.007Z,5.43
2022-10-06T06:09:00.612Z,4.87
2022-10-06T06:11:31.356Z,5.33
2022-10-06T06:14:00.844Z,5.10
2022-10-06T06:16:30.953Z,4.97
2022-10-06T06:18:59.569Z,5.73
2022-10-06T06:21:30.150Z,6.20
2022-10-06T06:23:58.678Z,6.50
2022-10-06T06:26:28.547Z,7.43
2022-10-06T06:29:00.227Z,8.63
2022-10-06T06:31:31.508Z,8.27
2022-10-06T06:34:02.119Z,7.13
2022-10-06T06:36:35.656Z,7.87
2022-10-06T06:39:06.087Z,6.20
2022-10-06T06:41:38.251Z,7.10
2022-10-06T06:44:06.882Z,6.80
2022-10-06T06:49:09.766Z,7.10
2022-10-06T06:51:41.547Z,7.20
2022-10-06T06:54:11.256Z,6.60
2022-10-06T06:56:40.159Z,7.03
2022-10-06T06:59:11.759Z,7.17
2022-10-06T07:01:41.441Z,6.83
2022-10-06T07:04:09.416Z,7.47
2022-10-06T07:06:40.130Z,6.70
2022-10-06T07:09:09.025Z,6.43
2022-10-06T07:11:38.156Z,6.40
2022-10-06T07:14:07.466Z,6.53
2022-10-06T07:16:52.175Z,6.17
2022-10-06T07:19:39.038Z,6.30
2022-10-06T07:22:33.708Z,6.30
2022-10-06T07:25:11.887Z,7.60
2022-10-06T07:27:43.078Z,7.60
2022-10-06T07:30:12.979Z,5.80
2022-10-06T07:32:45.469Z,6.30
2022-10-06T07:35:13.962Z,6.33
2022-10-06T07:37:43.313Z,6.43
2022-10-06T07:40:12.267Z,5.67
2022-10-06T07:42:51.998Z,5.73
2022-10-06T07:45:41.152Z,6.97
2022-10-06T07:48:15.231Z,6.80
2022-10-06T07:50:44.067Z,6.50
2022-10-06T07:53:13.615Z,6.97
2022-10-06T07:55:44.621Z,6.30
2022-10-06T07:58:13.662Z,6.20
2022-10-06T08:00:41.590Z,5.37
2022-10-06T08:03:10.097Z,5.93
2022-10-06T08:05:39.220Z,6.70
2022-10-06T08:08:07.476Z,7.10
2022-10-06T08:10:37.222Z,6.93
2022-10-06T08:13:06.709Z,7.10
2022-10-06T08:15:34.885Z,6.80
2022-10-06T08:18:06.226Z,6.83
2022-10-06T08:20:41.679Z,6.40
2022-10-06T08:23:12.162Z,5.50
2022-10-06T08:25:43.373Z,6.40
2022-10-06T08:28:11.665Z,6.17
2022-10-06T08:30:40.032Z,6.40
2022-10-06T08:33:07.879Z,6.17
2022-10-06T08:35:37.237Z,6.00
2022-10-06T08:38:05.048Z,5.70
2022-10-06T08:40:33.476Z,5.93
2022-10-06T08:43:03.948Z,5.47
2022-10-06T08:45:38.641Z,5.33
2022-10-06T08:48:14.334Z,5.60
2022-10-06T08:50:56.727Z,4.57
2022-10-06T08:53:35.698Z,4.87
2022-10-06T08:56:18.233Z,4.20
2022-10-06T08:58:54.490Z,4.32
2022-10-06T09:01:25.402Z,4.55
2022-10-06T09:03:56.237Z,4.50
2022-10-06T09:06:42.146Z,3.90
2022-10-06T09:09:21.987Z,3.00
2022-10-06T09:12:03.065Z,2.90
2022-10-06T09:14:40.060Z,3.50
2022-10-06T09:17:12.667Z,3.53
2022-10-06T09:19:47.186Z,3.60
2022-10-06T09:22:22.332Z,3.20
2022-10-06T09:24:56.109Z,3.87
2022-10-06T09:27:28.562Z,3.10
2022-10-06T09:29:58.459Z,3.20
2022-10-06T09:32:29.631Z,3.77
2022-10-06T09:34:59.908Z,3.40
2022-10-06T09:37:28.539Z,3.47
2022-10-06T09:39:57.271Z,3.77
2022-10-06T09:42:29.639Z,3.80
2022-10-06T09:45:01.892Z,3.60
2022-10-06T09:47:39.333Z,3.33
2022-10-06T09:50:22.004Z,3.77
2022-10-06T09:53:11.673Z,3.30
2022-10-06T09:55:47.395Z,3.63
2022-10-06T09:58:22.724Z,3.43
2022-10-06T10:00:57.186Z,3.40
2022-10-06T10:03:27.231Z,3.37
2022-10-06T10:05:56.251Z,3.40
2022-10-06T10:08:26.555Z,3.27
2022-10-06T10:11:44.339Z,3.20
2022-10-06T10:14:20.341Z,3.00
2022-10-06T10:16:53.398Z,3.10
2022-10-06T10:19:28.215Z,3.60
2022-10-06T10:21:57.606Z,3.60
2022-10-06T10:24:47.706Z,3.57
2022-10-06T10:27:20.594Z,2.80
2022-10-06T10:30:01.759Z,3.40
2022-10-06T10:32:53.005Z,3.00
2022-10-06T10:35:27.470Z,3.43
2022-10-06T10:38:01.942Z,3.30
2022-10-06T10:40:40.735Z,3.33
2022-10-06T10:43:17.537Z,3.23
2022-10-06T10:45:49.891Z,2.90
2022-10-06T10:48:25.429Z,3.30
2022-10-06T10:51:02.106Z,3.40
2022-10-06T10:53:40.297Z,3.10
2022-10-06T10:56:13.116Z,3.20
2022-10-06T10:58:43.184Z,2.80
2022-10-06T11:01:23.207Z,2.67
2022-10-06T11:03:56.799Z,2.53
2022-10-06T11:06:39.159Z,2.83
2022-10-06T11:09:11.669Z,2.73
2022-10-06T11:11:55.888Z,2.63
2022-10-06T11:14:53.417Z,2.80
2022-10-06T11:17:40.042Z,2.20
2022-10-06T11:20:34.131Z,2.40
2022-10-06T11:23:24.398Z,2.17
2022-10-06T11:26:02.581Z,2.10
2022-10-06T11:28:39.376Z,2.00
2022-10-06T11:31:22.553Z,2.23
2022-10-06T11:33:54.517Z,1.70
2022-10-06T11:36:38.476Z,1.90
2022-10-06T11:39:21.624Z,1.70
2022-10-06T11:41:54.096Z,1.67
2022-10-06T11:44:33.524Z,1.80
2022-10-06T11:47:07.026Z,1.25
2022-10-06T11:49:56.275Z,1.27
2022-10-06T11:52:58.634Z,1.10
2022-10-06T11:55:29.040Z,1.08
2022-10-06T11:58:41.462Z,0.90
2022-10-06T12:01:30.004Z,1.02
2022-10-06T12:04:15.220Z,0.98
2022-10-06T12:07:07.638Z,0.77
2022-10-06T12:09:46.207Z,0.90
2022-10-06T12:13:06.246Z,1.00
2022-10-06T12:17:09.487Z,0.80
2022-10-06T12:19:03.875Z,1.23
2022-10-06T12:21:41.994Z,1.17
2022-10-06T12:24:25.863Z,1.23
2022-10-06T12:27:24.998Z,1.20
2022-10-06T12:30:01.655Z,0.80
2022-10-06T12:32:47.675Z,0.77
2022-10-06T12:35:34.105Z,1.10
2022-10-06T12:38:05.439Z,1.10
2022-10-06T12:40:51.416Z,1.40
2022-10-06T12:43:58.525Z,1.47
2022-10-06T12:46:44.741Z,0.70
2022-10-06T12:49:34.361Z,1.10
2022-10-06T12:52:17.269Z,1.00
2022-10-06T12:54:56.492Z,1.07
2022-10-06T12:57:28.518Z,1.03
2022-10-06T12:59:56.495Z,0.90
2022-10-06T13:02:28.182Z,1.13
2022-10-06T13:04:58.647Z,0.93
2022-10-06T13:07:28.978Z,0.73
2022-10-06T13:13:23.789Z,1.10
2022-10-06T13:15:55.816Z,4.50
2022-10-06T13:18:25.266Z,1.60
2022-10-06T13:20:54.851Z,1.10
2022-10-06T13:23:26.545Z,0.90
2022-10-06T13:25:58.728Z,0.90
2022-10-06T13:28:30.837Z,1.40
2022-10-06T13:33:34.495Z,1.33
2022-10-06T13:36:03.795Z,0.90
2022-10-06T13:38:35.879Z,0.80
2022-10-06T13:41:05.857Z,1.10
2022-10-06T13:43:39.736Z,0.70
2022-10-06T13:46:10.914Z,0.87
2022-10-06T13:48:46.659Z,0.80
2022-10-06T13:51:20.712Z,1.10
2022-10-06T13:53:49.378Z,0.60
2022-10-06T13:56:35.800Z,0.73
2022-10-06T13:59:33.816Z,0.80
2022-10-06T14:02:22.065Z,0.83
2022-10-06T14:05:29.927Z,0.80
2022-10-06T14:08:00.845Z,1.17
2022-10-06T14:10:32.268Z,0.77
2022-10-06T14:13:01.970Z,1.10
2022-10-06T14:15:36.343Z,1.40
2022-10-06T14:18:06.174Z,1.73
2022-10-06T14:20:42.002Z,1.23
2022-10-06T14:23:35.987Z,1.17
2022-10-06T14:26:03.905Z,1.00
2022-10-06T14:28:31.834Z,1.40
2022-10-06T14:31:00.315Z,1.20
2022-10-06T14:33:28.404Z,1.00
2022-10-06T14:35:57.755Z,1.13
2022-10-06T14:38:26.140Z,1.27
2022-10-06T14:40:53.985Z,1.00
2022-10-06T14:43:22.373Z,1.00
2022-10-06T14:45:50.218Z,0.90
2022-10-06T14:48:18.092Z,1.33
2022-10-06T14:50:46.827Z,1.30
2022-10-06T14:53:17.470Z,1.00
2022-10-06T14:55:45.480Z,1.30
2022-10-06T14:58:13.501Z,1.70
2022-10-06T15:00:43.389Z,1.83
2022-10-06T15:03:11.342Z,1.40
2022-10-06T15:05:59.499Z,1.43
2022-10-06T15:08:27.775Z,1.20
2022-10-06T15:10:55.683Z,1.30
2022-10-06T15:13:23.507Z,1.23
2022-10-06T15:15:58.737Z,1.60
2022-10-06T15:18:27.608Z,1.63
2022-10-06T15:20:55.445Z,1.60
2022-10-06T15:23:23.325Z,1.70
2022-10-06T15:26:13.207Z,1.60
2022-10-06T15:28:58.660Z,1.37
2022-10-06T15:31:27.306Z,1.90
2022-10-06T15:33:55.985Z,1.80
2022-10-06T15:36:25.994Z,1.63
2022-10-06T15:38:54.615Z,1.50
2022-10-06T15:41:23.876Z,1.60
2022-10-06T15:43:57.702Z,1.40
2022-10-06T15:46:28.364Z,1.30
2022-10-06T15:48:59.014Z,1.47
2022-10-06T15:51:27.301Z,1.20
2022-10-06T15:53:55.371Z,1.20
2022-10-06T15:56:24.955Z,1.80
2022-10-06T15:58:52.795Z,1.67
2022-10-06T16:01:29.562Z,1.30
2022-10-06T16:03:59.070Z,1.50
2022-10-06T16:06:41.415Z,1.60
2022-10-06T16:09:10.491Z,2.07
2022-10-06T16:11:40.474Z,2.53
2022-10-06T16:14:09.466Z,2.17
2022-10-06T16:16:42.628Z,2.30
2022-10-06T16:19:11.475Z,2.40
2022-10-06T16:21:39.849Z,2.40
2022-10-06T16:24:08.359Z,1.80
2022-10-06T16:26:36.546Z,2.00
2022-10-06T16:29:06.200Z,2.23
2022-10-06T16:31:34.297Z,2.00
2022-10-06T16:34:02.381Z,2.20
2022-10-06T16:36:30.249Z,2.03
2022-10-06T16:38:58.545Z,2.40
2022-10-06T16:41:26.674Z,1.97
2022-10-06T16:43:55.090Z,2.13
2022-10-06T16:46:25.756Z,2.30
2022-10-06T16:48:55.955Z,2.50
2022-10-06T16:51:25.116Z,2.20
2022-10-06T16:53:54.927Z,3.93
2022-10-06T16:56:25.005Z,3.00
2022-10-06T16:58:54.703Z,3.07
2022-10-06T17:01:26.670Z,2.60
2022-10-06T17:04:02.896Z,2.43
2022-10-06T17:06:32.757Z,2.00
2022-10-06T17:09:00.691Z,2.10
2022-10-06T17:11:28.801Z,2.40
2022-10-06T17:13:58.056Z,2.53
2022-10-06T17:16:29.651Z,2.30
2022-10-06T17:18:58.850Z,2.40
2022-10-06T17:21:45.086Z,2.63
2022-10-06T17:24:14.405Z,3.23
2022-10-06T17:26:44.280Z,3.33
2022-10-06T17:29:14.973Z,2.83
2022-10-06T17:31:44.993Z,2.67
2022-10-06T17:34:18.228Z,3.00
2022-10-06T17:36:50.703Z,2.50
2022-10-06T17:39:20.100Z,2.70
2022-10-06T17:41:49.467Z,2.90
2022-10-06T17:44:20.558Z,2.53
2022-10-06T17:46:51.695Z,2.87
2022-10-06T17:49:21.338Z,2.93
2022-10-06T17:51:50.486Z,3.00
2022-10-06T17:54:20.654Z,3.90
2022-10-06T17:56:50.559Z,3.67
2022-10-06T17:59:21.124Z,4.80
2022-10-06T18:01:56.402Z,3.47
2022-10-06T18:04:25.073Z,3.50
2022-10-06T18:06:54.206Z,3.90
2022-10-06T18:09:22.592Z,3.70
2022-10-06T18:11:55.481Z,3.40
2022-10-06T18:14:25.216Z,3.63
2022-10-06T18:16:57.635Z,3.70
2022-10-06T18:19:30.097Z,3.60
2022-10-06T18:22:00.166Z,3.30
2022-10-06T18:24:29.613Z,3.40
2022-10-06T18:27:00.015Z,3.70
2022-10-06T18:29:30.597Z,3.43
2022-10-06T18:32:23.554Z,3.13
2022-10-06T18:37:36.025Z,5.10
2022-10-06T18:40:06.838Z,4.47
2022-10-06T18:42:35.222Z,4.23
2022-10-06T18:45:20.333Z,4.87
2022-10-06T18:48:07.458Z,4.17
2022-10-06T18:50:35.469Z,4.43
2022-10-06T18:53:04.558Z,4.20
2022-10-06T18:55:35.029Z,4.70
2022-10-06T18:58:03.286Z,4.10
2022-10-06T19:00:31.167Z,4.10
2022-10-06T19:03:00.434Z,4.63
2022-10-06T19:05:28.267Z,5.03
2022-10-06T19:07:56.507Z,4.40
2022-10-06T19:10:24.371Z,4.67
2022-10-06T19:12:52.242Z,4.87
2022-10-06T19:15:21.263Z,4.10
2022-10-06T19:17:49.755Z,6.30
2022-10-06T19:20:19.516Z,5.50
2022-10-06T19:22:48.032Z,6.03
2022-10-06T19:25:22.322Z,5.67
2022-10-06T19:27:50.242Z,4.57
2022-10-06T19:30:18.586Z,4.50
2022-10-06T19:32:46.446Z,4.70
2022-10-06T19:35:14.297Z,5.63
2022-10-06T19:37:43.772Z,5.80
2022-10-06T19:40:12.137Z,4.90
2022-10-06T19:42:48.149Z,5.07
2022-10-06T19:45:17.307Z,6.40
2022-10-06T19:47:46.679Z,5.03
2022-10-06T19:50:15.430Z,5.77
2022-10-06T19:52:45.218Z,6.00
2022-10-06T19:55:13.093Z,4.30
2022-10-06T19:57:42.088Z,4.70
2022-10-06T20:00:11.349Z,4.90
2022-10-06T20:02:42.507Z,4.40
2022-10-06T20:05:11.595Z,5.03
2022-10-06T20:07:39.858Z,4.63
2022-10-06T20:10:09.714Z,4.73
2022-10-06T20:12:38.462Z,5.13
2022-10-06T20:15:07.261Z,5.70
2022-10-06T20:17:35.976Z,5.80
2022-10-06T20:20:04.389Z,5.83
2022-10-06T20:22:32.714Z,6.00
2022-10-06T20:25:01.969Z,6.00
2022-10-06T20:27:31.506Z,5.17
2022-10-06T20:29:59.427Z,5.27
2022-10-06T20:32:27.398Z,4.77
2022-10-06T20:34:55.315Z,4.93
2022-10-06T20:37:23.250Z,4.50
2022-10-06T20:40:08.377Z,5.17
2022-10-06T20:42:37.683Z,5.50
2022-10-06T20:45:07.182Z,5.33
2022-10-06T20:47:35.013Z,5.77
2022-10-06T20:50:02.890Z,6.00
2022-10-06T20:52:31.679Z,6.93
2022-10-06T20:54:59.551Z,6.77
2022-10-06T20:57:33.627Z,7.23
2022-10-06T21:00:04.563Z,8.83
2022-10-06T21:02:33.488Z,6.77
2022-10-06T21:05:09.911Z,9.47
2022-10-06T21:07:37.774Z,10.60
2022-10-06T21:10:06.317Z,13.17
2022-10-06T21:12:34.158Z,14.80
2022-10-06T21:15:03.753Z,16.60
2022-10-06T21:17:31.614Z,16.40
2022-10-06T21:19:59.461Z,14.50
2022-10-06T21:22:31.294Z,12.23
2022-10-06T21:24:59.341Z,14.03
2022-10-06T21:27:27.145Z,12.97
2022-10-06T21:29:55.209Z,14.53
2022-10-06T21:32:24.737Z,14.10
2022-10-06T21:34:56.528Z,15.60
2022-10-06T21:37:24.371Z,16.43
2022-10-06T21:39:52.362Z,13.47
2022-10-06T21:42:20.386Z,13.73
2022-10-06T21:44:48.204Z,12.53
2022-10-06T21:47:16.099Z,12.27
2022-10-06T21:49:45.430Z,7.43
2022-10-06T21:52:13.241Z,7.57
2022-10-06T21:54:41.080Z,7.20
2022-10-06T21:57:09.145Z,8.40
2022-10-06T21:59:36.964Z,8.47
2022-10-06T22:02:04.836Z,7.97
2022-10-06T22:04:32.738Z,7.83
2022-10-06T22:07:02.057Z,7.53
2022-10-06T22:09:29.984Z,8.23
2022-10-06T22:11:58.384Z,12.03
2022-10-06T22:14:26.440Z,14.43
2022-10-06T22:16:54.249Z,14.77
2022-10-06T22:19:22.648Z,13.80
2022-10-06T22:21:50.490Z,12.80
2022-10-06T22:24:21.909Z,12.13
2022-10-06T22:26:50.737Z,11.17
2022-10-06T22:29:20.747Z,9.50
2022-10-06T22:31:49.488Z,9.10
2022-10-06T22:34:19.964Z,8.20
2022-10-06T22:36:48.110Z,8.83
2022-10-06T22:39:16.357Z,8.70
2022-10-06T22:41:45.784Z,7.40
2022-10-06T22:44:13.619Z,7.53
2022-10-06T22:46:41.567Z,7.10
2022-10-06T22:49:09.414Z,6.90
2022-10-06T22:51:37.974Z,7.20
2022-10-06T22:54:06.005Z,6.83
2022-10-06T22:56:34.922Z,6.87
2022-10-06T22:59:04.654Z,7.03
2022-10-06T23:01:32.480Z,6.53
2022-10-06T23:04:00.508Z,6.60
2022-10-06T23:06:29.759Z,7.73
2022-10-06T23:08:57.991Z,8.97
2022-10-06T23:11:26.008Z,8.50
2022-10-06T23:13:53.853Z,8.63
2022-10-06T23:16:23.449Z,7.47
2022-10-06T23:18:51.342Z,8.10
2022-10-06T23:21:23.259Z,8.27
2022-10-06T23:23:52.886Z,7.37
2022-10-06T23:26:21.487Z,8.13
2022-10-06T23:28:52.815Z,7.20
2022-10-06T23:31:22.007Z,7.80
2022-10-06T23:33:49.869Z,7.23
2022-10-06T23:36:18.764Z,7.60
2022-10-06T23:38:46.862Z,6.73
2022-10-06T23:41:15.333Z,7.30
2022-10-06T23:43:43.071Z,7.10
2022-10-06T23:46:11.049Z,7.07
2022-10-06T23:48:40.620Z,7.27
2022-10-06T23:51:09.694Z,6.40
2022-10-06T23:53:37.713Z,6.73
2022-10-06T23:56:06.760Z,6.00
2022-10-06T23:58:34.687Z,5.93
